createdAt,value
2024-05-09T00:00:00.605Z,12.80
2024-05-09T00:01:00.630Z,13.42
2024-05-09T00:02:00.645Z,13.42
2024-05-09T00:03:00.644Z,13.42
2024-05-09T00:04:00.777Z,13.00
2024-05-09T00:05:00.811Z,13.00
2024-05-09T00:06:00.861Z,13.00
2024-05-09T00:07:00.570Z,14.13
2024-05-09T00:08:00.662Z,14.13
2024-05-09T00:09:00.609Z,14.13
2024-05-09T00:10:01.080Z,14.82
2024-05-09T00:11:00.720Z,14.82
2024-05-09T00:12:00.772Z,14.82
2024-05-09T00:13:00.990Z,15.47
2024-05-09T00:14:00.969Z,15.47
2024-05-09T00:15:00.580Z,15.47
2024-05-09T00:16:00.623Z,14.65
2024-05-09T00:17:00.642Z,14.65
2024-05-09T00:18:00.926Z,14.65
2024-05-09T00:19:00.656Z,14.41
2024-05-09T00:20:00.725Z,14.41
2024-05-09T00:21:03.005Z,14.41
2024-05-09T00:22:00.607Z,15.22
2024-05-09T00:23:00.653Z,15.22
2024-05-09T00:24:00.582Z,15.22
2024-05-09T00:25:00.578Z,15.36
2024-05-09T00:26:00.658Z,15.36
2024-05-09T00:27:00.572Z,15.36
2024-05-09T00:28:00.689Z,14.04
2024-05-09T00:29:00.626Z,14.04
2024-05-09T00:30:00.647Z,14.04
2024-05-09T00:31:01.357Z,13.41
2024-05-09T00:32:00.757Z,13.41
2024-05-09T00:33:00.872Z,13.41
2024-05-09T00:34:00.938Z,13.53
2024-05-09T00:35:00.709Z,13.53
2024-05-09T00:36:00.659Z,13.53
2024-05-09T00:37:00.600Z,13.96
2024-05-09T00:38:01.018Z,13.96
2024-05-09T00:39:00.613Z,13.96
2024-05-09T00:40:00.591Z,13.96
2024-05-09T00:41:00.657Z,13.96
2024-05-09T00:42:00.668Z,13.96
2024-05-09T00:43:00.645Z,14.54
2024-05-09T00:44:00.670Z,14.54
2024-05-09T00:45:00.620Z,14.54
2024-05-09T00:46:00.835Z,13.74
2024-05-09T00:47:00.608Z,13.74
2024-05-09T00:48:01.907Z,13.74
2024-05-09T00:49:00.780Z,13.37
2024-05-09T00:50:01.432Z,13.37
2024-05-09T00:51:01.012Z,13.37
2024-05-09T00:52:01.045Z,14.35
2024-05-09T00:53:00.852Z,14.35
2024-05-09T00:54:00.906Z,14.35
2024-05-09T00:55:00.663Z,14.94
2024-05-09T00:56:00.745Z,14.94
2024-05-09T00:57:01.803Z,14.94
2024-05-09T00:58:01.084Z,14.38
2024-05-09T00:59:01.415Z,14.38
2024-05-09T01:00:00.612Z,14.38
2024-05-09T01:01:01.568Z,15.61
2024-05-09T01:02:00.696Z,15.61
2024-05-09T01:03:00.786Z,15.61
2024-05-09T01:04:01.397Z,13.89
2024-05-09T01:05:00.983Z,13.89
2024-05-09T01:06:00.617Z,13.89
2024-05-09T01:07:00.605Z,14.54
2024-05-09T01:08:01.099Z,14.54
2024-05-09T01:09:00.617Z,14.54
2024-05-09T01:10:00.584Z,14.19
2024-05-09T01:11:00.812Z,14.19
2024-05-09T01:12:00.823Z,14.19
2024-05-09T01:13:00.637Z,15.57
2024-05-09T01:14:00.673Z,15.57
2024-05-09T01:15:00.675Z,15.57
2024-05-09T01:16:01.290Z,14.49
2024-05-09T01:17:00.668Z,14.49
2024-05-09T01:18:04.654Z,14.49
2024-05-09T01:19:02.810Z,14.63
2024-05-09T01:20:00.697Z,14.63
2024-05-09T01:21:00.633Z,14.63
2024-05-09T01:22:00.611Z,16.13
2024-05-09T01:23:05.084Z,16.13
2024-05-09T01:24:00.562Z,16.13
2024-05-09T01:25:00.579Z,17.42
2024-05-09T01:26:00.710Z,17.42
2024-05-09T01:27:00.610Z,17.42
2024-05-09T01:28:00.604Z,16.01
2024-05-09T01:29:00.712Z,16.01
2024-05-09T01:30:00.722Z,16.01
2024-05-09T01:31:00.565Z,15.78
2024-05-09T01:32:00.823Z,15.78
2024-05-09T01:33:01.046Z,15.78
2024-05-09T01:34:00.794Z,14.54
2024-05-09T01:35:00.627Z,14.54
2024-05-09T01:36:00.996Z,14.54
2024-05-09T01:37:00.588Z,16.13
2024-05-09T01:38:00.686Z,16.13
2024-05-09T01:39:00.615Z,16.13
2024-05-09T01:40:00.610Z,15.77
2024-05-09T01:41:00.596Z,15.77
2024-05-09T01:42:00.610Z,15.77
2024-05-09T01:43:00.569Z,15.99
2024-05-09T01:44:00.679Z,15.99
2024-05-09T01:45:00.708Z,15.99
2024-05-09T01:46:00.720Z,15.72
2024-05-09T01:47:00.678Z,15.72
2024-05-09T01:48:01.166Z,15.72
2024-05-09T01:49:00.696Z,15.78
2024-05-09T01:50:00.917Z,15.78
2024-05-09T01:51:00.709Z,15.78
2024-05-09T01:52:00.649Z,15.78
2024-05-09T01:53:00.668Z,15.78
2024-05-09T01:54:01.284Z,15.78
2024-05-09T01:55:04.507Z,15.40
2024-05-09T01:56:00.632Z,15.40
2024-05-09T01:57:00.578Z,15.40
2024-05-09T01:58:00.577Z,15.77
2024-05-09T01:59:00.679Z,15.77
2024-05-09T02:00:00.694Z,15.77
2024-05-09T02:01:00.689Z,16.53
2024-05-09T02:02:00.922Z,16.53
2024-05-09T02:03:00.937Z,16.53
2024-05-09T02:04:00.752Z,15.68
2024-05-09T02:05:00.793Z,15.68
2024-05-09T02:06:00.686Z,15.68
2024-05-09T02:07:00.631Z,16.40
2024-05-09T02:08:00.958Z,16.40
2024-05-09T02:09:00.591Z,16.40
2024-05-09T02:10:00.569Z,16.73
2024-05-09T02:11:00.852Z,16.73
2024-05-09T02:12:01.003Z,16.73
2024-05-09T02:13:00.560Z,16.73
2024-05-09T02:14:00.658Z,16.73
2024-05-09T02:15:00.602Z,16.73
2024-05-09T02:16:00.563Z,16.10
2024-05-09T02:17:00.630Z,16.10
2024-05-09T02:18:01.065Z,16.10
2024-05-09T02:19:00.616Z,16.10
2024-05-09T02:20:00.692Z,16.10
2024-05-09T02:21:00.860Z,16.10
2024-05-09T02:22:00.716Z,16.43
2024-05-09T02:23:00.696Z,16.43
2024-05-09T02:24:00.550Z,16.43
2024-05-09T02:25:00.567Z,16.43
2024-05-09T02:26:00.726Z,16.43
2024-05-09T02:27:00.614Z,16.43
2024-05-09T02:28:00.803Z,16.43
2024-05-09T02:29:00.632Z,16.43
2024-05-09T02:30:00.688Z,16.43
2024-05-09T02:31:00.608Z,16.43
2024-05-09T02:32:00.719Z,16.43
2024-05-09T02:33:00.916Z,16.43
2024-05-09T02:34:00.869Z,16.47
2024-05-09T02:35:00.636Z,16.47
2024-05-09T02:36:00.605Z,16.47
2024-05-09T02:37:00.620Z,17.65
2024-05-09T02:38:00.865Z,17.65
2024-05-09T02:39:00.593Z,17.65
2024-05-09T02:40:00.604Z,16.73
2024-05-09T02:41:01.050Z,16.73
2024-05-09T02:42:00.602Z,16.73
2024-05-09T02:43:00.612Z,17.02
2024-05-09T02:44:00.613Z,17.02
2024-05-09T02:45:00.583Z,17.02
2024-05-09T02:46:00.720Z,17.02
2024-05-09T02:47:00.584Z,17.02
2024-05-09T02:48:01.718Z,17.02
2024-05-09T02:49:00.745Z,16.93
2024-05-09T02:50:00.639Z,16.93
2024-05-09T02:51:00.674Z,16.93
2024-05-09T02:52:00.573Z,16.36
2024-05-09T02:53:00.692Z,16.36
2024-05-09T02:54:00.592Z,16.36
2024-05-09T02:55:00.589Z,15.43
2024-05-09T02:56:00.724Z,15.43
2024-05-09T02:57:00.580Z,15.43
2024-05-09T02:58:00.709Z,16.76
2024-05-09T02:59:00.713Z,16.76
2024-05-09T03:00:00.644Z,16.76
2024-05-09T03:01:00.671Z,16.76
2024-05-09T03:02:00.745Z,16.76
2024-05-09T03:03:01.033Z,16.76
2024-05-09T03:04:00.690Z,16.76
2024-05-09T03:05:00.682Z,16.76
2024-05-09T03:06:01.265Z,16.76
2024-05-09T03:07:00.570Z,15.63
2024-05-09T03:08:00.692Z,15.63
2024-05-09T03:09:00.588Z,15.63
2024-05-09T03:10:00.652Z,17.41
2024-05-09T03:11:00.628Z,17.41
2024-05-09T03:12:00.745Z,17.41
2024-05-09T03:13:04.387Z,18.02
2024-05-09T03:14:01.007Z,18.02
2024-05-09T03:15:00.577Z,18.02
2024-05-09T03:16:00.566Z,17.31
2024-05-09T03:17:00.595Z,17.31
2024-05-09T03:18:01.075Z,17.31
2024-05-09T03:19:00.641Z,18.38
2024-05-09T03:20:01.565Z,18.38
2024-05-09T03:21:00.981Z,18.38
2024-05-09T03:22:00.593Z,17.64
2024-05-09T03:23:00.758Z,17.64
2024-05-09T03:24:00.580Z,17.64
2024-05-09T03:25:00.629Z,15.36
2024-05-09T03:26:00.644Z,15.36
2024-05-09T03:27:00.585Z,15.36
2024-05-09T03:28:00.592Z,16.89
2024-05-09T03:29:00.635Z,16.89
2024-05-09T03:30:00.607Z,16.89
2024-05-09T03:31:00.561Z,17.62
2024-05-09T03:32:00.726Z,17.62
2024-05-09T03:33:00.869Z,17.62
2024-05-09T03:34:00.755Z,16.84
2024-05-09T03:35:00.598Z,16.84
2024-05-09T03:36:01.441Z,16.84
2024-05-09T03:37:00.584Z,15.88
2024-05-09T03:38:00.622Z,15.88
2024-05-09T03:39:00.597Z,15.88
2024-05-09T03:40:00.723Z,15.88
2024-05-09T03:41:00.709Z,15.88
2024-05-09T03:42:00.590Z,15.88
2024-05-09T03:43:00.586Z,16.46
2024-05-09T03:44:00.657Z,16.46
2024-05-09T03:45:00.597Z,16.46
2024-05-09T03:46:00.577Z,16.65
2024-05-09T03:47:00.687Z,16.65
2024-05-09T03:48:00.843Z,16.65
2024-05-09T03:49:00.792Z,17.14
2024-05-09T03:50:00.722Z,17.14
2024-05-09T03:51:00.679Z,17.14
2024-05-09T03:52:00.604Z,16.02
2024-05-09T03:53:01.211Z,16.02
2024-05-09T03:54:00.581Z,16.02
2024-05-09T03:55:00.569Z,17.06
2024-05-09T03:56:00.676Z,17.06
2024-05-09T03:57:00.813Z,17.06
2024-05-09T03:58:00.637Z,17.39
2024-05-09T03:59:00.655Z,17.39
2024-05-09T04:00:00.582Z,17.39
2024-05-09T04:01:00.647Z,17.39
2024-05-09T04:02:00.726Z,17.39
2024-05-09T04:03:00.846Z,17.39
2024-05-09T04:04:00.655Z,16.30
2024-05-09T04:05:00.648Z,16.30
2024-05-09T04:06:00.605Z,16.30
2024-05-09T04:07:00.583Z,16.00
2024-05-09T04:08:00.778Z,16.00
2024-05-09T04:09:00.595Z,16.00
2024-05-09T04:10:00.645Z,17.60
2024-05-09T04:11:00.749Z,17.60
2024-05-09T04:12:00.697Z,17.60
2024-05-09T04:13:01.055Z,17.46
2024-05-09T04:14:00.659Z,17.46
2024-05-09T04:15:00.691Z,17.46
2024-05-09T04:16:00.559Z,18.59
2024-05-09T04:17:00.619Z,18.59
2024-05-09T04:18:01.698Z,18.59
2024-05-09T04:19:00.668Z,16.73
2024-05-09T04:20:00.807Z,16.73
2024-05-09T04:21:02.067Z,16.73
2024-05-09T04:22:00.610Z,16.05
2024-05-09T04:23:00.662Z,16.05
2024-05-09T04:24:00.579Z,16.05
2024-05-09T04:25:00.613Z,17.06
2024-05-09T04:26:00.763Z,17.06
2024-05-09T04:27:00.684Z,17.06
2024-05-09T04:28:00.617Z,18.04
2024-05-09T04:29:00.632Z,18.04
2024-05-09T04:30:00.646Z,18.04
2024-05-09T04:31:00.582Z,17.71
2024-05-09T04:32:00.740Z,17.71
2024-05-09T04:33:01.073Z,17.71
2024-05-09T04:34:00.749Z,18.07
2024-05-09T04:35:00.633Z,18.07
2024-05-09T04:36:00.636Z,18.07
2024-05-09T04:37:01.474Z,16.52
2024-05-09T04:38:00.860Z,16.52
2024-05-09T04:39:00.560Z,16.52
2024-05-09T04:40:00.576Z,16.52
2024-05-09T04:41:00.623Z,16.52
2024-05-09T04:42:00.566Z,16.52
2024-05-09T04:43:00.585Z,18.37
2024-05-09T04:44:00.627Z,18.37
2024-05-09T04:45:00.565Z,18.37
2024-05-09T04:46:00.598Z,18.37
2024-05-09T04:47:00.626Z,18.37
2024-05-09T04:48:01.508Z,18.37
2024-05-09T04:49:00.887Z,18.64
2024-05-09T04:50:00.655Z,18.64
2024-05-09T04:51:00.693Z,18.64
2024-05-09T04:52:00.571Z,17.70
2024-05-09T04:53:00.623Z,17.70
2024-05-09T04:54:00.672Z,17.70
2024-05-09T04:55:00.600Z,19.75
2024-05-09T04:56:00.724Z,19.75
2024-05-09T04:57:00.587Z,19.75
2024-05-09T04:58:00.622Z,19.39
2024-05-09T04:59:00.699Z,19.39
2024-05-09T05:00:00.627Z,19.39
2024-05-09T05:01:00.703Z,19.89
2024-05-09T05:02:00.804Z,19.89
2024-05-09T05:03:00.751Z,19.89
2024-05-09T05:04:00.841Z,21.09
2024-05-09T05:05:00.697Z,21.09
2024-05-09T05:06:00.673Z,21.09
2024-05-09T05:07:02.871Z,19.70
2024-05-09T05:08:00.634Z,19.70
2024-05-09T05:09:00.609Z,19.70
2024-05-09T05:10:00.627Z,18.99
2024-05-09T05:11:00.805Z,18.99
2024-05-09T05:12:01.019Z,18.99
2024-05-09T05:13:00.595Z,18.81
2024-05-09T05:14:00.714Z,18.81
2024-05-09T05:15:00.609Z,18.81
2024-05-09T05:16:00.587Z,19.47
2024-05-09T05:17:00.723Z,19.47
2024-05-09T05:18:00.979Z,19.47
2024-05-09T05:19:00.715Z,18.88
2024-05-09T05:20:00.888Z,18.88
2024-05-09T05:21:00.850Z,18.88
2024-05-09T05:22:00.631Z,18.88
2024-05-09T05:23:01.035Z,18.88
2024-05-09T05:24:00.630Z,18.88
2024-05-09T05:25:00.634Z,18.88
2024-05-09T05:26:00.642Z,18.88
2024-05-09T05:27:00.597Z,18.88
2024-05-09T05:28:00.652Z,19.00
2024-05-09T05:29:00.736Z,19.00
2024-05-09T05:30:00.637Z,19.00
2024-05-09T05:31:00.592Z,18.82
2024-05-09T05:32:00.815Z,18.82
2024-05-09T05:33:00.967Z,18.82
2024-05-09T05:34:00.671Z,18.93
2024-05-09T05:35:00.795Z,18.93
2024-05-09T05:36:00.573Z,18.93
2024-05-09T05:37:00.596Z,18.12
2024-05-09T05:38:00.871Z,18.12
2024-05-09T05:39:00.616Z,18.12
2024-05-09T05:40:00.600Z,17.81
2024-05-09T05:41:02.960Z,17.81
2024-05-09T05:42:00.601Z,17.81
2024-05-09T05:43:00.603Z,18.79
2024-05-09T05:44:00.670Z,18.79
2024-05-09T05:45:00.633Z,18.79
2024-05-09T05:46:00.597Z,19.03
2024-05-09T05:47:00.578Z,19.03
2024-05-09T05:48:02.181Z,19.03
2024-05-09T05:49:00.690Z,18.97
2024-05-09T05:50:00.856Z,18.97
2024-05-09T05:53:00.701Z,18.66
2024-05-09T05:54:00.562Z,18.66
2024-05-09T05:55:00.572Z,18.01
2024-05-09T05:56:00.702Z,18.01
2024-05-09T05:57:00.589Z,18.01
2024-05-09T05:58:00.873Z,18.09
2024-05-09T05:59:00.670Z,18.09
2024-05-09T06:00:00.614Z,18.09
2024-05-09T06:01:00.726Z,18.99
2024-05-09T06:02:00.629Z,18.99
2024-05-09T06:03:00.888Z,18.99
2024-05-09T06:04:00.713Z,18.99
2024-05-09T06:05:01.086Z,18.99
2024-05-09T06:06:01.946Z,18.99
2024-05-09T06:07:00.679Z,17.85
2024-05-09T06:08:01.099Z,17.85
2024-05-09T06:09:00.577Z,17.85
2024-05-09T06:10:00.643Z,18.93
2024-05-09T06:11:01.483Z,18.93
2024-05-09T06:12:00.816Z,18.93
2024-05-09T06:13:00.575Z,18.16
2024-05-09T06:14:00.711Z,18.16
2024-05-09T06:15:00.585Z,18.16
2024-05-09T06:16:00.599Z,17.37
2024-05-09T06:17:00.676Z,17.37
2024-05-09T06:18:01.071Z,17.37
2024-05-09T06:19:00.752Z,16.70
2024-05-09T06:20:00.666Z,16.70
2024-05-09T06:21:01.088Z,16.70
2024-05-09T06:22:00.576Z,16.70
2024-05-09T06:23:00.761Z,16.70
2024-05-09T06:24:02.597Z,16.70
2024-05-09T06:25:00.589Z,15.29
2024-05-09T06:26:00.699Z,15.29
2024-05-09T06:27:00.581Z,15.29
2024-05-09T06:28:00.721Z,15.66
2024-05-09T06:29:00.630Z,15.66
2024-05-09T06:30:00.621Z,15.66
2024-05-09T06:31:01.637Z,14.62
2024-05-09T06:32:00.872Z,14.62
2024-05-09T06:33:00.781Z,14.62
2024-05-09T06:34:00.819Z,15.23
2024-05-09T06:35:00.654Z,15.23
2024-05-09T06:36:00.653Z,15.23
2024-05-09T06:37:00.656Z,15.14
2024-05-09T06:38:00.721Z,15.14
2024-05-09T06:39:00.570Z,15.14
2024-05-09T06:40:00.591Z,17.26
2024-05-09T06:41:00.681Z,17.26
2024-05-09T06:42:00.626Z,17.26
2024-05-09T06:43:00.627Z,17.46
2024-05-09T06:44:00.724Z,17.46
2024-05-09T06:45:00.671Z,17.46
2024-05-09T06:46:00.600Z,15.79
2024-05-09T06:47:00.728Z,15.79
2024-05-09T06:48:01.061Z,15.79
2024-05-09T06:49:00.835Z,15.22
2024-05-09T06:50:00.728Z,15.22
2024-05-09T06:51:00.657Z,15.22
2024-05-09T06:52:00.580Z,17.44
2024-05-09T06:53:00.754Z,17.44
2024-05-09T06:54:00.661Z,17.44
2024-05-09T06:55:00.571Z,16.94
2024-05-09T06:56:00.628Z,16.94
2024-05-09T06:57:00.603Z,16.94
2024-05-09T06:58:00.775Z,14.65
2024-05-09T06:59:01.201Z,14.65
2024-05-09T07:00:00.721Z,14.65
2024-05-09T07:01:00.735Z,13.75
2024-05-09T07:02:01.296Z,13.75
2024-05-09T07:03:05.597Z,13.75
2024-05-09T07:04:00.678Z,14.91
2024-05-09T07:05:00.870Z,14.91
2024-05-09T07:06:00.679Z,14.91
2024-05-09T07:07:00.597Z,13.94
2024-05-09T07:08:00.707Z,13.94
2024-05-09T07:09:00.626Z,13.94
2024-05-09T07:10:00.602Z,12.72
2024-05-09T07:11:00.687Z,12.72
2024-05-09T07:12:00.726Z,12.72
2024-05-09T07:13:00.602Z,12.72
2024-05-09T07:14:00.624Z,12.72
2024-05-09T07:20:02.496Z,13.06
2024-05-09T07:21:01.315Z,13.06
2024-05-09T07:22:00.348Z,13.06
2024-05-09T07:23:01.239Z,13.06
2024-05-09T07:24:00.377Z,13.06
2024-05-09T07:25:00.360Z,12.23
2024-05-09T07:26:00.416Z,12.23
2024-05-09T07:27:00.336Z,12.23
2024-05-09T07:28:00.341Z,12.23
2024-05-09T07:29:00.348Z,12.23
2024-05-09T07:30:00.339Z,12.23
2024-05-09T07:31:00.339Z,12.23
2024-05-09T07:32:00.367Z,12.23
2024-05-09T07:33:00.744Z,12.23
2024-05-09T07:34:00.684Z,12.23
2024-05-09T07:35:00.369Z,12.23
2024-05-09T07:36:00.358Z,12.23
2024-05-09T07:37:00.381Z,12.23
2024-05-09T07:38:00.475Z,12.23
2024-05-09T07:39:00.333Z,12.23
2024-05-09T07:40:00.343Z,12.23
2024-05-09T07:41:01.891Z,12.23
2024-05-09T07:42:00.345Z,12.23
2024-05-09T07:43:02.031Z,12.23
2024-05-09T07:44:00.394Z,12.23
2024-05-09T07:45:17.759Z,12.23
2024-05-09T07:50:35.930Z,9.77
2024-05-09T07:51:47.485Z,9.77
2024-05-09T07:53:00.932Z,9.77
2024-05-09T07:53:26.821Z,10.57
2024-05-09T07:53:35.996Z,10.57
2024-05-09T07:54:01.513Z,10.57
2024-05-09T07:55:00.796Z,9.44
2024-05-09T07:56:00.608Z,9.44
2024-05-09T07:57:00.478Z,9.44
2024-05-09T07:58:00.341Z,10.36
2024-05-09T07:59:00.368Z,10.36
2024-05-09T08:00:00.338Z,10.36
2024-05-09T08:01:00.540Z,9.30
2024-05-09T08:02:00.593Z,9.30
2024-05-09T08:03:00.403Z,9.30
2024-05-09T08:04:00.507Z,7.52
2024-05-09T08:05:00.524Z,7.52
2024-05-09T08:06:00.348Z,7.52
2024-05-09T08:07:00.388Z,4.83
2024-05-09T08:08:00.343Z,4.83
2024-05-09T08:09:05.284Z,4.83
2024-05-09T08:11:00.915Z,5.69
2024-05-09T08:12:00.335Z,5.69
2024-05-09T08:13:00.348Z,5.69
2024-05-09T08:14:00.380Z,5.69
2024-05-09T08:15:00.332Z,5.69
2024-05-09T08:16:00.691Z,7.00
2024-05-09T08:17:00.383Z,7.00
2024-05-09T08:18:00.745Z,7.00
2024-05-09T08:19:00.665Z,5.96
2024-05-09T08:20:01.998Z,5.96
2024-05-09T08:21:00.886Z,5.96
2024-05-09T08:22:00.361Z,5.87
2024-05-09T08:23:00.354Z,5.87
2024-05-09T08:24:00.330Z,5.87
2024-05-09T08:25:00.514Z,7.25
2024-05-09T08:26:00.314Z,7.25
2024-05-09T08:27:00.572Z,7.25
2024-05-09T08:28:02.386Z,8.26
2024-05-09T08:29:00.401Z,8.26
2024-05-09T08:33:00.438Z,6.55
2024-05-09T08:34:00.494Z,6.55
2024-05-09T08:35:00.434Z,6.55
2024-05-09T08:36:00.343Z,6.80
2024-05-09T08:37:06.104Z,6.80
2024-05-09T08:38:02.448Z,6.80
2024-05-09T08:39:00.462Z,8.37
2024-05-09T08:40:00.500Z,8.37
2024-05-09T08:41:02.460Z,8.37
2024-05-09T08:43:01.459Z,5.86
2024-05-09T08:44:01.286Z,5.86
2024-05-09T08:45:00.568Z,5.86
2024-05-09T08:46:00.932Z,5.14
2024-05-09T08:47:01.377Z,5.14
2024-05-09T08:48:01.232Z,5.14
2024-05-09T08:49:02.015Z,5.14
2024-05-09T08:50:01.802Z,5.75
2024-05-09T08:51:00.364Z,5.75
2024-05-09T08:52:00.418Z,5.75
2024-05-09T08:53:00.387Z,6.39
2024-05-09T08:54:00.415Z,6.39
2024-05-09T08:55:00.416Z,5.81
2024-05-09T08:56:00.854Z,5.81
2024-05-09T08:57:01.190Z,5.81
2024-05-09T09:00:03.485Z,6.14
2024-05-09T09:03:01.329Z,4.81
2024-05-09T09:04:01.400Z,4.81
2024-05-09T09:05:04.798Z,4.81
2024-05-09T09:06:01.235Z,4.81
2024-05-09T09:14:00.373Z,5.19
2024-05-09T09:15:00.385Z,5.19
2024-05-09T09:16:00.569Z,5.19
2024-05-09T09:17:10.333Z,5.37
2024-05-09T09:18:00.967Z,5.37
2024-05-09T09:23:00.348Z,5.21
2024-05-09T09:24:00.360Z,5.21
2024-05-09T09:25:00.402Z,5.21
2024-05-09T09:26:00.500Z,5.12
2024-05-09T09:27:00.413Z,5.12
2024-05-09T09:28:00.555Z,5.12
2024-05-09T09:29:00.374Z,4.46
2024-05-09T09:30:00.361Z,4.46
2024-05-09T09:31:00.955Z,4.46
2024-05-09T09:32:00.909Z,4.07
2024-05-09T09:33:00.509Z,4.07
2024-05-09T09:34:04.683Z,4.07
2024-05-09T09:35:00.423Z,5.05
2024-05-09T09:36:01.521Z,5.05
2024-05-09T09:37:03.569Z,5.05
2024-05-09T09:38:01.101Z,4.75
2024-05-09T09:39:01.207Z,4.75
2024-05-09T09:40:02.006Z,4.75
2024-05-09T09:41:03.751Z,4.75
2024-05-09T09:42:01.327Z,4.74
2024-05-09T09:43:00.622Z,4.74
2024-05-09T09:44:01.542Z,4.74
2024-05-09T09:49:00.630Z,4.65
2024-05-09T09:50:00.741Z,4.65
2024-05-09T09:51:00.681Z,4.65
2024-05-09T09:52:00.572Z,4.96
2024-05-09T09:53:00.495Z,4.96
2024-05-09T09:54:02.512Z,4.96
2024-05-09T09:55:00.791Z,4.96
2024-05-09T09:56:00.695Z,4.96
2024-05-09T09:57:03.224Z,4.96
2024-05-09T09:58:02.580Z,4.33
2024-05-09T09:59:02.953Z,4.33
2024-05-09T10:00:00.496Z,4.33
2024-05-09T10:01:02.562Z,4.47
2024-05-09T10:02:00.504Z,4.47
2024-05-09T10:03:01.469Z,4.47
2024-05-09T10:04:01.081Z,4.65
2024-05-09T10:05:00.646Z,4.65
2024-05-09T10:06:01.162Z,4.65
2024-05-09T10:07:03.264Z,4.46
2024-05-09T10:08:02.989Z,4.46
2024-05-09T10:09:00.409Z,4.46
2024-05-09T10:10:00.545Z,5.17
2024-05-09T10:11:02.207Z,5.17
2024-05-09T10:12:09.590Z,5.17
2024-05-09T10:14:00.692Z,5.64
2024-05-09T10:15:06.011Z,5.64
2024-05-09T10:16:06.168Z,4.75
2024-05-09T10:17:02.971Z,4.75
2024-05-09T10:18:03.279Z,4.75
2024-05-09T10:19:00.939Z,4.48
2024-05-09T10:20:05.454Z,4.48
2024-05-09T10:21:00.992Z,4.48
2024-05-09T10:22:01.346Z,5.39
2024-05-09T10:23:00.472Z,5.39
2024-05-09T10:24:02.144Z,5.39
2024-05-09T10:25:05.082Z,4.50
2024-05-09T10:26:01.403Z,4.50
2024-05-09T10:27:02.662Z,4.50
2024-05-09T10:28:00.418Z,7.55
2024-05-09T10:29:20.495Z,7.55
2024-05-09T10:30:01.303Z,7.55
2024-05-09T10:31:06.353Z,4.25
2024-05-09T10:32:00.761Z,4.25
2024-05-09T10:33:00.436Z,4.25
2024-05-09T10:34:00.699Z,5.90
2024-05-09T10:36:01.979Z,5.90
2024-05-09T10:37:02.041Z,4.75
2024-05-09T10:38:04.404Z,4.75
2024-05-09T10:39:00.554Z,4.75
2024-05-09T10:40:00.693Z,5.15
2024-05-09T10:41:01.114Z,5.15
2024-05-09T10:42:00.468Z,5.15
2024-05-09T10:43:04.701Z,4.93
2024-05-09T10:44:00.407Z,4.93
2024-05-09T10:45:00.590Z,4.93
2024-05-09T10:46:00.414Z,4.70
2024-05-09T10:47:00.439Z,4.70
2024-05-09T10:48:00.628Z,4.70
2024-05-09T10:49:03.361Z,6.46
2024-05-09T10:50:00.620Z,6.46
2024-05-09T10:51:00.421Z,6.46
2024-05-09T10:52:02.318Z,6.28
2024-05-09T10:53:01.188Z,6.28
2024-05-09T10:54:00.396Z,6.28
2024-05-09T10:55:01.685Z,5.10
2024-05-09T10:56:00.676Z,5.10
2024-05-09T10:57:00.372Z,5.10
2024-05-09T10:58:00.519Z,5.68
2024-05-09T10:59:03.054Z,5.68
2024-05-09T11:00:00.385Z,5.68
2024-05-09T11:01:03.391Z,5.68
2024-05-09T11:02:03.168Z,5.68
2024-05-09T11:03:00.506Z,5.68
2024-05-09T11:04:00.657Z,4.85
2024-05-09T11:05:00.473Z,4.85
2024-05-09T11:06:00.363Z,4.85
2024-05-09T11:07:05.425Z,5.26
2024-05-09T11:08:00.488Z,5.26
2024-05-09T11:09:00.538Z,5.26
2024-05-09T11:10:00.567Z,5.26
2024-05-09T11:11:01.517Z,5.26
2024-05-09T11:12:01.223Z,5.26
2024-05-09T11:13:00.536Z,6.14
2024-05-09T11:14:10.142Z,6.14
2024-05-09T11:15:00.393Z,6.14
2024-05-09T11:16:01.425Z,5.58
2024-05-09T11:17:01.044Z,5.58
2024-05-09T11:18:00.518Z,5.58
2024-05-09T11:19:00.642Z,5.25
2024-05-09T11:20:00.590Z,5.25
2024-05-09T11:21:00.715Z,5.25
2024-05-09T11:22:00.426Z,5.33
2024-05-09T11:23:04.302Z,5.33
2024-05-09T11:24:00.403Z,5.33
2024-05-09T11:25:00.559Z,5.80
2024-05-09T11:26:00.649Z,5.80
2024-05-09T11:27:01.603Z,5.80
2024-05-09T11:28:00.838Z,5.80
2024-05-09T11:29:00.385Z,5.80
2024-05-09T11:30:00.400Z,5.80
2024-05-09T11:31:03.718Z,5.80
2024-05-09T11:32:00.419Z,5.80
2024-05-09T11:33:00.605Z,5.80
2024-05-09T11:34:00.387Z,5.80
2024-05-09T11:35:00.357Z,5.80
2024-05-09T11:36:00.386Z,5.80
2024-05-09T11:37:00.477Z,5.98
2024-05-09T11:38:00.383Z,5.98
2024-05-09T11:39:00.376Z,5.98
2024-05-09T11:40:00.461Z,9.79
2024-05-09T11:41:01.402Z,9.79
2024-05-09T11:42:00.411Z,9.79
2024-05-09T11:43:00.421Z,4.67
2024-05-09T11:44:00.538Z,4.67
2024-05-09T11:45:00.390Z,4.67
2024-05-09T11:46:01.238Z,4.89
2024-05-09T11:47:01.203Z,4.89
2024-05-09T11:48:00.660Z,4.89
2024-05-09T11:49:00.639Z,4.89
2024-05-09T11:50:00.548Z,4.89
2024-05-09T11:51:00.370Z,4.89
2024-05-09T11:52:00.580Z,4.89
2024-05-09T11:53:00.394Z,4.89
2024-05-09T11:54:00.472Z,4.89
2024-05-09T11:55:00.416Z,4.76
2024-05-09T11:56:00.385Z,4.76
2024-05-09T11:57:00.422Z,4.76
2024-05-09T11:58:01.325Z,4.76
2024-05-09T11:59:00.410Z,4.76
2024-05-09T12:00:00.388Z,4.76
2024-05-09T12:01:00.534Z,4.76
2024-05-09T12:02:00.469Z,4.76
2024-05-09T12:03:00.421Z,4.76
2024-05-09T12:04:00.780Z,4.39
2024-05-09T12:05:00.527Z,4.39
2024-05-09T12:06:00.657Z,4.39
2024-05-09T12:07:00.524Z,4.30
2024-05-09T12:08:00.430Z,4.30
2024-05-09T12:09:00.386Z,4.30
2024-05-09T12:10:00.589Z,5.61
2024-05-09T12:11:00.589Z,5.61
2024-05-09T12:12:00.395Z,5.61
2024-05-09T12:13:00.478Z,4.32
2024-05-09T12:14:00.447Z,4.32
2024-05-09T12:15:00.424Z,4.32
2024-05-09T12:16:00.477Z,5.09
2024-05-09T12:17:00.448Z,5.09
2024-05-09T12:18:03.506Z,5.09
2024-05-09T12:19:00.708Z,4.87
2024-05-09T12:20:00.406Z,4.87
2024-05-09T12:21:00.775Z,4.87
2024-05-09T12:22:00.440Z,4.87
2024-05-09T12:23:00.376Z,4.87
2024-05-09T12:24:00.373Z,4.87
2024-05-09T12:25:00.481Z,3.50
2024-05-09T12:26:00.539Z,3.50
2024-05-09T12:27:00.387Z,3.50
2024-05-09T12:28:00.801Z,3.88
2024-05-09T12:29:00.379Z,3.88
2024-05-09T12:30:00.404Z,3.88
2024-05-09T12:31:00.433Z,3.33
2024-05-09T12:32:00.390Z,3.33
2024-05-09T12:33:00.508Z,3.33
2024-05-09T12:34:00.491Z,3.33
2024-05-09T12:35:00.407Z,3.33
2024-05-09T12:36:00.527Z,3.33
2024-05-09T12:37:00.443Z,4.52
2024-05-09T12:38:00.544Z,4.52
2024-05-09T12:39:00.958Z,4.52
2024-05-09T12:40:00.390Z,3.28
2024-05-09T12:41:01.295Z,3.28
2024-05-09T12:42:00.393Z,3.28
2024-05-09T12:43:00.470Z,2.69
2024-05-09T12:44:00.766Z,2.69
2024-05-09T12:45:00.416Z,2.69
2024-05-09T12:46:00.533Z,3.39
2024-05-09T12:47:00.413Z,3.39
2024-05-09T12:48:00.608Z,3.39
2024-05-09T12:50:00.671Z,3.05
2024-05-09T12:51:00.389Z,3.05
2024-05-09T12:52:00.387Z,3.05
2024-05-09T12:53:00.724Z,3.05
2024-05-09T12:54:00.391Z,3.05
2024-05-09T12:55:00.509Z,3.30
2024-05-09T12:56:02.514Z,3.30
2024-05-09T12:57:00.457Z,3.30
2024-05-09T12:58:00.536Z,2.61
2024-05-09T12:59:00.372Z,2.61
2024-05-09T13:00:00.427Z,2.61
2024-05-09T13:01:00.718Z,2.75
2024-05-09T13:02:01.213Z,2.75
2024-05-09T13:03:01.135Z,2.75
2024-05-09T13:04:00.598Z,2.59
2024-05-09T13:05:00.398Z,2.59
2024-05-09T13:06:00.437Z,2.59
2024-05-09T13:07:00.448Z,2.94
2024-05-09T13:08:00.722Z,2.94
2024-05-09T13:09:00.462Z,2.94
2024-05-09T13:10:00.713Z,3.27
2024-05-09T13:11:00.450Z,3.27
2024-05-09T13:12:00.455Z,3.27
2024-05-09T13:13:01.370Z,2.41
2024-05-09T13:14:00.361Z,2.41
2024-05-09T13:15:00.386Z,2.41
2024-05-09T13:16:00.416Z,2.78
2024-05-09T13:17:00.482Z,2.78
2024-05-09T13:18:02.940Z,2.78
2024-05-09T13:19:00.374Z,2.66
2024-05-09T13:20:00.379Z,2.66
2024-05-09T13:21:00.755Z,2.66
2024-05-09T13:22:00.517Z,2.89
2024-05-09T13:23:00.906Z,2.89
2024-05-09T13:24:00.606Z,2.89
2024-05-09T13:25:00.415Z,3.23
2024-05-09T13:26:00.387Z,3.23
2024-05-09T13:27:00.435Z,3.23
2024-05-09T13:28:00.447Z,2.76
2024-05-09T13:29:00.363Z,2.76
2024-05-09T13:30:00.405Z,2.76
2024-05-09T13:31:00.410Z,2.71
2024-05-09T13:32:00.534Z,2.71
2024-05-09T13:33:00.491Z,2.71
2024-05-09T13:34:00.500Z,2.21
2024-05-09T13:35:00.375Z,2.21
2024-05-09T13:36:00.414Z,2.21
2024-05-09T13:37:00.462Z,1.73
2024-05-09T13:38:00.645Z,1.73
2024-05-09T13:39:00.434Z,1.73